Time;durP1;ratioP1;P1;durP2;ratioP2;P2;SDS_P1;SDS_P2;PMS_P1;PMS_P2;Temp;Humidity;BMP_temperature;BMP_pressure;BME280_temperature;BME280_humidity;BME280_pressure;Samples;Min_cycle;Max_cycle;Signal;HPM_P1;HPM_P2
2022/03/14 00:02:12;;;;;;;0.40;0.40;;;4.50;52.50;;;;;;5054891;28;20428;-65
2022/03/14 00:05:00;;;;;;;0.70;0.70;;;4.40;52.50;;;;;;5055532;28;20562;-66
2022/03/14 00:07:47;;;;;;;0.40;0.40;;;4.40;52.50;;;;;;5055018;28;20463;-65
2022/03/14 00:10:35;;;;;;;0.40;0.40;;;4.40;52.70;;;;;;5054187;28;20461;-65
2022/03/14 00:13:22;;;;;;;0.40;0.40;;;4.40;52.70;;;;;;5055126;28;20551;-65
2022/03/14 00:16:16;;;;;;;3.07;2.57;;;4.50;53.10;;;;;;5055199;28;20963;-65
2022/03/14 00:19:05;;;;;;;21.43;20.40;;;4.40;53.10;;;;;;5054478;28;20743;-65
2022/03/14 00:21:52;;;;;;;0.40;0.40;;;4.40;53.30;;;;;;5053826;28;20417;-65
2022/03/14 00:24:38;;;;;;;0.40;0.40;;;4.30;53.50;;;;;;5054601;28;20482;-65
2022/03/14 00:27:26;;;;;;;0.40;0.40;;;4.30;53.60;;;;;;5054468;28;20421;-66
2022/03/14 00:30:13;;;;;;;0.50;0.50;;;4.30;53.60;;;;;;5054439;28;20468;-65
2022/03/14 00:33:02;;;;;;;0.40;0.40;;;4.20;53.70;;;;;;5053604;28;20436;-64
2022/03/14 00:35:49;;;;;;;0.50;0.50;;;4.20;53.90;;;;;;5053918;28;20431;-65
2022/03/14 00:38:36;;;;;;;0.40;0.40;;;4.20;54.00;;;;;;5054268;28;20421;-66
2022/03/14 00:41:23;;;;;;;0.60;0.60;;;4.20;54.30;;;;;;5054198;28;20432;-65
2022/03/14 00:44:11;;;;;;;0.40;0.40;;;4.10;55.00;;;;;;5053976;28;20899;-65
2022/03/14 00:46:58;;;;;;;0.40;0.40;;;4.10;54.20;;;;;;5054170;28;20523;-65
2022/03/14 00:49:47;;;;;;;3.23;2.63;;;4.10;54.50;;;;;;5054035;28;20433;-65
2022/03/14 00:52:34;;;;;;;0.40;0.40;;;4.10;54.80;;;;;;5053719;28;20428;-65
2022/03/14 00:55:21;;;;;;;0.40;0.40;;;4.00;54.60;;;;;;5053946;28;20429;-66
2022/03/14 00:58:08;;;;;;;0.43;0.43;;;4.10;54.80;;;;;;5071094;28;20431;-66
2022/03/14 01:00:55;;;;;;;0.50;0.50;;;4.00;54.90;;;;;;5074003;28;20419;-65
2022/03/14 01:03:41;;;;;;;0.90;0.90;;;4.00;55.00;;;;;;5073070;28;20455;-65
2022/03/14 01:06:30;;;;;;;0.80;0.80;;;4.00;55.10;;;;;;5074151;28;20423;-65
2022/03/14 01:09:17;;;;;;;0.40;0.40;;;3.90;55.00;;;;;;5072660;28;20428;-66
2022/03/14 01:12:04;;;;;;;0.70;0.70;;;3.90;55.00;;;;;;5072350;28;20466;-65
2022/03/14 01:14:51;;;;;;;2.10;2.00;;;3.90;55.30;;;;;;5073473;28;20452;-66
2022/03/14 01:17:40;;;;;;;0.40;0.40;;;3.80;55.20;;;;;;5073946;28;20963;-65
2022/03/14 01:20:27;;;;;;;0.50;0.50;;;3.70;55.50;;;;;;5072878;28;20427;-66
2022/03/14 01:23:15;;;;;;;0.40;0.40;;;3.60;55.60;;;;;;5072377;28;20436;-66
2022/03/14 01:26:02;;;;;;;0.40;0.40;;;3.70;55.90;;;;;;5073312;28;20424;-66
2022/03/14 01:28:49;;;;;;;0.50;0.50;;;3.60;56.10;;;;;;5073823;28;20422;-65
2022/03/14 01:31:36;;;;;;;1.63;1.63;;;3.50;56.10;;;;;;5073243;28;20464;-65
2022/03/14 01:34:24;;;;;;;0.50;0.50;;;3.40;56.10;;;;;;5073101;28;20446;-66
2022/03/14 01:37:11;;;;;;;0.40;0.40;;;3.50;56.10;;;;;;5073343;28;20424;-65
2022/03/14 01:39:59;;;;;;;1.70;1.70;;;3.40;56.20;;;;;;5074663;28;20428;-64
2022/03/14 01:42:47;;;;;;;2.50;2.40;;;3.40;56.40;;;;;;5076456;28;20447;-64
2022/03/14 01:45:34;;;;;;;1.03;1.03;;;3.40;56.30;;;;;;5075750;28;20424;-65
2022/03/14 01:48:21;;;;;;;0.40;0.40;;;3.30;56.70;;;;;;5074307;28;20438;-64
2022/03/14 01:51:07;;;;;;;0.40;0.40;;;3.30;56.60;;;;;;5073864;28;20471;-64
2022/03/14 01:53:54;;;;;;;0.40;0.40;;;3.20;57.00;;;;;;5087009;28;20451;-65
2022/03/14 01:56:44;;;;;;;0.40;0.40;;;3.20;56.90;;;;;;5084375;28;20492;-65
2022/03/14 01:59:31;;;;;;;0.40;0.40;;;3.20;57.30;;;;;;5072161;28;20425;-65
2022/03/14 02:02:17;;;;;;;0.40;0.40;;;3.10;57.40;;;;;;5069988;28;20424;-65
2022/03/14 02:05:05;;;;;;;0.40;0.40;;;3.10;57.40;;;;;;5070072;28;20421;-65
2022/03/14 02:07:52;;;;;;;0.60;0.60;;;3.00;57.60;;;;;;5059744;28;20431;-65
2022/03/14 02:10:39;;;;;;;0.40;0.40;;;3.00;57.80;;;;;;5054531;28;20468;-64
2022/03/14 02:13:27;;;;;;;0.50;0.50;;;2.90;57.90;;;;;;5075428;23;20558;-71
2022/03/14 02:16:14;;;;;;;0.50;0.50;;;3.00;58.10;;;;;;5054700;28;20696;-71
2022/03/14 02:19:01;;;;;;;3.33;3.13;;;2.90;58.20;;;;;;5058957;28;20488;-71
2022/03/14 02:21:50;;;;;;;0.50;0.50;;;2.90;58.30;;;;;;5064591;28;20434;-71
2022/03/14 02:24:37;;;;;;;0.50;0.50;;;2.80;58.40;;;;;;5065038;28;20444;-71
2022/03/14 02:27:24;;;;;;;0.50;0.50;;;2.80;58.50;;;;;;5070673;28;20432;-71
2022/03/14 02:30:12;;;;;;;0.47;0.47;;;2.70;58.60;;;;;;5072950;28;20461;-70
2022/03/14 02:33:01;;;;;;;0.63;0.63;;;2.70;58.80;;;;;;5072138;28;20432;-72
2022/03/14 02:35:49;;;;;;;0.40;0.40;;;2.70;59.00;;;;;;5071884;28;20428;-70
2022/03/14 02:38:37;;;;;;;0.40;0.40;;;2.50;58.70;;;;;;5072487;28;20510;-70
2022/03/14 02:41:24;;;;;;;0.50;0.50;;;2.60;59.00;;;;;;5071750;28;21008;-70
2022/03/14 02:44:11;;;;;;;0.40;0.40;;;2.60;58.90;;;;;;5071658;28;21188;-71
2022/03/14 02:46:58;;;;;;;1.37;1.07;;;2.60;58.90;;;;;;5071390;28;20452;-71
2022/03/14 02:49:45;;;;;;;0.40;0.40;;;2.50;59.00;;;;;;5072553;28;20779;-71
2022/03/14 02:52:32;;;;;;;0.90;0.90;;;2.50;59.00;;;;;;5065971;28;20420;-71
2022/03/14 02:55:23;;;;;;;1.43;1.43;;;2.50;59.30;;;;;;5063322;28;20425;-71
2022/03/14 02:58:10;;;;;;;0.50;0.50;;;2.50;59.50;;;;;;5080533;28;20772;-72
2022/03/14 03:00:57;;;;;;;13.33;3.63;;;2.40;59.50;;;;;;5080915;28;20451;-71
2022/03/14 03:03:44;;;;;;;0.50;0.50;;;2.40;59.60;;;;;;5079352;28;20525;-70
2022/03/14 03:06:33;;;;;;;0.50;0.50;;;2.40;59.70;;;;;;5077661;28;20424;-71
2022/03/14 03:09:19;;;;;;;0.50;0.50;;;2.40;59.80;;;;;;5079261;28;20420;-70
2022/03/14 03:12:11;;;;;;;0.50;0.50;;;2.50;60.30;;;;;;5075948;28;20464;-70
2022/03/14 03:14:58;;;;;;;0.50;0.50;;;2.30;60.10;;;;;;5075934;28;20456;-70
2022/03/14 03:17:45;;;;;;;0.50;0.50;;;2.30;60.30;;;;;;5078503;28;20426;-71
2022/03/14 03:20:32;;;;;;;0.50;0.50;;;2.20;60.00;;;;;;5076685;28;20474;-71
2022/03/14 03:23:19;;;;;;;0.50;0.50;;;2.30;60.20;;;;;;5077182;28;20477;-71
2022/03/14 03:26:06;;;;;;;0.50;0.50;;;2.30;60.40;;;;;;5076537;28;20962;-72
2022/03/14 03:28:55;;;;;;;0.50;0.50;;;2.20;60.30;;;;;;5078287;28;20430;-71
2022/03/14 03:31:42;;;;;;;1.67;1.57;;;2.20;60.50;;;;;;5078130;28;20459;-71
2022/03/14 03:34:30;;;;;;;0.40;0.40;;;2.10;60.60;;;;;;5078543;28;20448;-71
2022/03/14 03:37:17;;;;;;;0.50;0.50;;;2.20;60.80;;;;;;5077190;28;20448;-71
2022/03/14 03:40:05;;;;;;;0.50;0.50;;;2.10;60.70;;;;;;5077725;28;20460;-71
2022/03/14 03:42:52;;;;;;;0.50;0.50;;;2.10;61.00;;;;;;5076132;28;20420;-70
2022/03/14 03:45:40;;;;;;;0.50;0.50;;;2.10;60.80;;;;;;5075297;28;20463;-71
2022/03/14 03:48:27;;;;;;;0.50;0.50;;;2.00;60.90;;;;;;5073651;28;20941;-71
2022/03/14 03:51:14;;;;;;;0.50;0.50;;;2.10;61.00;;;;;;5073473;28;20456;-70
2022/03/14 03:54:02;;;;;;;0.50;0.50;;;2.00;61.00;;;;;;5074465;28;20444;-70
2022/03/14 03:56:48;;;;;;;2.30;2.10;;;2.00;60.90;;;;;;5069284;28;20438;-70
2022/03/14 03:59:35;;;;;;;0.50;0.50;;;2.00;60.80;;;;;;5054841;28;20416;-70
2022/03/14 04:02:24;;;;;;;0.50;0.50;;;2.00;61.00;;;;;;5053882;28;20797;-72
2022/03/14 04:05:11;;;;;;;1.90;1.90;;;2.00;61.00;;;;;;5054102;28;20463;-71
2022/03/14 04:08:00;;;;;;;0.50;0.50;;;2.00;61.00;;;;;;5054273;28;20432;-71
2022/03/14 04:10:54;;;;;;;0.50;0.50;;;2.00;60.90;;;;;;5053152;28;20436;-71
2022/03/14 04:13:41;;;;;;;0.50;0.50;;;2.00;60.90;;;;;;5053340;28;20460;-71
2022/03/14 04:16:28;;;;;;;0.40;0.40;;;2.00;61.10;;;;;;5054071;28;20571;-72
2022/03/14 04:19:17;;;;;;;0.50;0.50;;;1.90;61.20;;;;;;5053400;28;20425;-71
2022/03/14 04:22:04;;;;;;;0.40;0.40;;;1.90;61.20;;;;;;5053814;28;20427;-71
2022/03/14 04:24:51;;;;;;;0.50;0.50;;;1.90;61.20;;;;;;5053167;28;20448;-72
2022/03/14 04:27:38;;;;;;;0.40;0.40;;;1.80;61.40;;;;;;5053627;28;20431;-71
2022/03/14 04:30:25;;;;;;;0.50;0.50;;;1.80;61.90;;;;;;5053287;28;20482;-71
2022/03/14 04:33:12;;;;;;;0.50;0.50;;;1.80;62.00;;;;;;5053000;28;20444;-72
2022/03/14 04:36:01;;;;;;;0.60;0.60;;;1.70;62.10;;;;;;5053054;28;20461;-71
2022/03/14 04:38:48;;;;;;;0.40;0.40;;;1.70;62.20;;;;;;5052903;28;20558;-71
2022/03/14 04:41:37;;;;;;;0.60;0.60;;;1.60;62.40;;;;;;5052711;28;20937;-72
2022/03/14 04:44:24;;;;;;;0.50;0.50;;;1.60;62.50;;;;;;5053071;28;20823;-71
2022/03/14 04:47:11;;;;;;;0.50;0.50;;;1.60;62.50;;;;;;5053126;28;20435;-71
2022/03/14 04:49:58;;;;;;;1.73;1.67;;;1.60;62.60;;;;;;5052812;28;20948;-73
2022/03/14 04:52:46;;;;;;;0.50;0.50;;;1.50;62.70;;;;;;5052018;28;20467;-70
2022/03/14 04:55:34;;;;;;;0.40;0.40;;;1.50;62.80;;;;;;5052778;28;20471;-71
2022/03/14 04:58:21;;;;;;;0.50;0.50;;;1.50;62.80;;;;;;5071385;28;20420;-70
2022/03/14 05:01:08;;;;;;;0.83;0.83;;;;;;;;;;5072634;28;20832;-73
2022/03/14 05:03:55;;;;;;;0.50;0.50;;;1.50;62.30;;;;;;5073092;28;20495;-72
2022/03/14 05:06:42;;;;;;;0.50;0.50;;;1.40;62.90;;;;;;5073258;28;20426;-73
2022/03/14 05:09:30;;;;;;;2.40;2.20;;;1.50;63.10;;;;;;5073588;28;20520;-71
2022/03/14 05:12:17;;;;;;;0.50;0.50;;;1.40;63.00;;;;;;5072691;28;20995;-71
2022/03/14 05:15:05;;;;;;;0.50;0.50;;;1.50;63.20;;;;;;5071402;28;20466;-70
2022/03/14 05:17:52;;;;;;;30.63;26.77;;;1.40;63.10;;;;;;5070912;28;20918;-71
2022/03/14 05:20:40;;;;;;;0.50;0.50;;;1.40;63.30;;;;;;5073329;28;20430;-71
2022/03/14 05:23:28;;;;;;;11.40;8.40;;;1.40;63.40;;;;;;5072698;28;20444;-70
2022/03/14 05:26:16;;;;;;;0.50;0.50;;;1.40;63.50;;;;;;5070958;28;20431;-70
2022/03/14 05:29:04;;;;;;;0.50;0.50;;;1.40;63.60;;;;;;5073711;28;20462;-71
2022/03/14 05:31:51;;;;;;;0.50;0.50;;;1.30;63.70;;;;;;5072492;28;20498;-71
2022/03/14 05:34:38;;;;;;;0.50;0.50;;;1.30;63.70;;;;;;5071684;28;20544;-72
2022/03/14 05:37:25;;;;;;;0.50;0.50;;;1.30;64.00;;;;;;5071991;28;20963;-70
2022/03/14 05:40:15;;;;;;;0.60;0.60;;;1.40;63.90;;;;;;5072632;28;20431;-71
2022/03/14 05:43:08;;;;;;;0.50;0.50;;;1.40;63.80;;;;;;5072159;28;20839;-73
2022/03/14 05:45:55;;;;;;;0.50;0.50;;;1.40;63.70;;;;;;5072205;28;20501;-70
2022/03/14 05:48:42;;;;;;;0.50;0.50;;;1.50;63.70;;;;;;5075264;28;20443;-70
2022/03/14 05:51:29;;;;;;;0.50;0.50;;;1.50;63.60;;;;;;5084120;28;20483;-71
2022/03/14 05:54:15;;;;;;;0.50;0.50;;;1.50;63.60;;;;;;5084243;28;20537;-71
2022/03/14 05:57:03;;;;;;;1.27;1.27;;;1.60;63.60;;;;;;5075249;28;20440;-71
2022/03/14 05:59:51;;;;;;;1.17;1.17;;;1.70;63.40;;;;;;5065253;28;20421;-71
2022/03/14 06:02:38;;;;;;;0.50;0.50;;;1.70;63.10;;;;;;5063636;28;20478;-71
2022/03/14 06:05:25;;;;;;;0.50;0.50;;;1.80;63.20;;;;;;5056007;28;20424;-69
2022/03/14 06:08:12;;;;;;;0.50;0.50;;;1.80;63.20;;;;;;5055825;28;20436;-71
2022/03/14 06:10:59;;;;;;;0.50;0.50;;;1.80;63.20;;;;;;5056041;28;20513;-71
2022/03/14 06:13:46;;;;;;;0.50;0.50;;;1.90;63.00;;;;;;5056044;28;20458;-70
2022/03/14 06:16:35;;;;;;;0.50;0.50;;;1.80;63.10;;;;;;5055484;28;20559;-71
2022/03/14 06:19:21;;;;;;;0.50;0.50;;;1.90;62.80;;;;;;5055583;28;20885;-71
2022/03/14 06:22:08;;;;;;;0.50;0.50;;;2.00;63.00;;;;;;5054815;28;20413;-70
2022/03/14 06:24:55;;;;;;;0.50;0.50;;;2.00;62.80;;;;;;5055782;28;20444;-71
2022/03/14 06:27:42;;;;;;;0.70;0.70;;;2.10;62.90;;;;;;5055622;28;20442;-69
2022/03/14 06:30:29;;;;;;;0.80;0.80;;;2.10;62.90;;;;;;5055804;28;20416;-70
2022/03/14 06:33:17;;;;;;;0.53;0.53;;;2.20;62.00;;;;;;5055970;28;20889;-70
2022/03/14 06:36:05;;;;;;;0.50;0.50;;;2.30;62.40;;;;;;5055340;28;20488;-68
2022/03/14 06:38:52;;;;;;;0.50;0.50;;;2.30;61.90;;;;;;5055558;28;20486;-70
2022/03/14 06:41:39;;;;;;;0.50;0.50;;;2.40;61.90;;;;;;5054095;28;20420;-70
2022/03/14 06:44:29;;;;;;;0.47;0.47;;;2.50;61.80;;;;;;5055951;28;20444;-70
2022/03/14 06:47:17;;;;;;;3.83;3.63;;;2.50;61.70;;;;;;5054937;28;20478;-69
2022/03/14 06:50:06;;;;;;;0.50;0.50;;;2.60;61.60;;;;;;5055596;28;20832;-70
2022/03/14 06:52:53;;;;;;;0.60;0.60;;;2.70;61.50;;;;;;5052659;28;20467;-72
2022/03/14 06:55:40;;;;;;;4.57;4.13;;;2.70;61.40;;;;;;5056320;28;20496;-70
2022/03/14 06:58:28;;;;;;;1.17;1.07;;;;;;;;;;5053333;28;20432;-68
2022/03/14 07:01:14;;;;;;;0.50;0.50;;;2.90;60.40;;;;;;5054641;28;20432;-71
2022/03/14 07:04:02;;;;;;;0.70;0.70;;;3.00;60.60;;;;;;5052724;28;20964;-69
2022/03/14 07:06:50;;;;;;;0.70;0.70;;;3.10;60.50;;;;;;5051070;28;20433;-69
2022/03/14 07:09:37;;;;;;;0.50;0.50;;;3.20;60.10;;;;;;5055417;28;20425;-70
2022/03/14 07:12:25;;;;;;;1.37;1.37;;;3.40;60.00;;;;;;5053477;28;20812;-71
2022/03/14 07:15:12;;;;;;;0.87;0.87;;;3.40;59.80;;;;;;5053674;28;20464;-69
2022/03/14 07:17:59;;;;;;;0.57;0.57;;;3.40;59.40;;;;;;5063011;28;20442;-70
2022/03/14 07:20:46;;;;;;;0.50;0.50;;;3.50;59.30;;;;;;5075338;28;20506;-70
2022/03/14 07:23:35;;;;;;;1.90;1.80;;;3.60;59.30;;;;;;5075112;28;20442;-69
2022/03/14 07:26:22;;;;;;;0.60;0.60;;;3.70;59.10;;;;;;5071730;28;20432;-71
2022/03/14 07:29:09;;;;;;;0.50;0.50;;;3.80;58.60;;;;;;5040915;28;20859;-71
2022/03/14 07:31:56;;;;;;;0.60;0.60;;;3.90;58.50;;;;;;5064415;28;20556;-71
2022/03/14 07:34:43;;;;;;;0.50;0.50;;;4.00;58.40;;;;;;5047595;28;20496;-70
2022/03/14 07:37:30;;;;;;;0.50;0.50;;;4.10;58.40;;;;;;5046912;28;20441;-72
2022/03/14 07:40:18;;;;;;;0.50;0.50;;;4.10;58.40;;;;;;5035280;28;20496;-68
2022/03/14 07:43:05;;;;;;;0.50;0.50;;;4.30;57.20;;;;;;5037745;28;21008;-70
2022/03/14 07:45:52;;;;;;;0.60;0.60;;;4.30;57.70;;;;;;5032405;28;20425;-71
2022/03/14 07:48:39;;;;;;;1.57;1.47;;;4.50;57.60;;;;;;5044449;28;20483;-71
2022/03/14 07:51:28;;;;;;;0.50;0.50;;;4.50;57.30;;;;;;5052673;28;20492;-70
2022/03/14 07:54:15;;;;;;;0.50;0.50;;;4.70;57.50;;;;;;5053593;28;21137;-68
2022/03/14 07:57:03;;;;;;;0.70;0.70;;;4.80;57.20;;;;;;5052079;28;20559;-70
2022/03/14 07:59:51;;;;;;;0.50;0.50;;;4.90;56.90;;;;;;5048658;28;20941;-70
2022/03/14 08:02:38;;;;;;;1.20;1.20;;;5.00;56.50;;;;;;5033274;28;20417;-71
2022/03/14 08:05:26;;;;;;;2.20;2.10;;;5.10;56.00;;;;;;5034029;28;20429;-72
2022/03/14 08:08:17;;;;;;;0.50;0.50;;;5.20;56.10;;;;;;5033706;28;20426;-70
2022/03/14 08:11:04;;;;;;;0.50;0.50;;;5.30;55.90;;;;;;5065284;28;20867;-69
2022/03/14 08:13:53;;;;;;;0.50;0.50;;;5.50;55.60;;;;;;5037479;28;20465;-69
2022/03/14 08:16:40;;;;;;;0.50;0.50;;;5.60;55.20;;;;;;5053015;28;20435;-70
2022/03/14 08:19:27;;;;;;;1.90;1.20;;;5.70;55.00;;;;;;5047245;28;20452;-72
2022/03/14 08:22:14;;;;;;;1.90;1.80;;;5.80;54.70;;;;;;5052290;28;20940;-70
2022/03/14 08:25:01;;;;;;;0.40;0.40;;;6.00;54.30;;;;;;5046578;28;20480;-69
2022/03/14 08:27:48;;;;;;;0.50;0.50;;;6.10;53.80;;;;;;5050180;28;20425;-71
2022/03/14 08:30:36;;;;;;;0.50;0.50;;;6.10;53.80;;;;;;5062678;28;20447;-71
2022/03/14 08:33:24;;;;;;;0.60;0.60;;;6.20;53.40;;;;;;5072308;28;20482;-71
2022/03/14 08:36:11;;;;;;;1.50;1.50;;;6.40;53.50;;;;;;5071105;28;20800;-72
2022/03/14 08:38:58;;;;;;;0.50;0.50;;;6.50;53.00;;;;;;5061303;28;20919;-69
2022/03/14 08:41:45;;;;;;;2.27;2.17;;;6.60;53.00;;;;;;5072137;28;20424;-71
2022/03/14 08:44:32;;;;;;;0.50;0.50;;;6.70;53.00;;;;;;5056577;28;20444;-69
2022/03/14 08:47:20;;;;;;;3.53;1.97;;;6.80;52.90;;;;;;5045284;28;20490;-69
2022/03/14 08:50:10;;;;;;;0.40;0.40;;;6.90;52.60;;;;;;5041125;28;20535;-71
2022/03/14 08:52:57;;;;;;;0.60;0.60;;;7.00;52.60;;;;;;5043207;28;20607;-70
2022/03/14 08:55:44;;;;;;;0.40;0.40;;;7.10;52.60;;;;;;5043618;28;20988;-69
2022/03/14 08:58:31;;;;;;;0.60;0.60;;;7.10;52.30;;;;;;5050467;28;20470;-69
2022/03/14 09:01:18;;;;;;;0.53;0.53;;;7.20;52.50;;;;;;5050802;28;20874;-70
2022/03/14 09:04:06;;;;;;;0.50;0.50;;;7.30;52.10;;;;;;5051562;28;20506;-71
2022/03/14 09:06:54;;;;;;;0.50;0.50;;;7.40;52.10;;;;;;5050148;28;20424;-70
2022/03/14 09:09:41;;;;;;;0.60;0.60;;;7.50;52.40;;;;;;5064379;28;20420;-70
2022/03/14 09:12:28;;;;;;;0.50;0.50;;;7.50;52.20;;;;;;5061479;28;20509;-70
2022/03/14 09:15:15;;;;;;;0.50;0.50;;;7.70;52.10;;;;;;5032791;28;20492;-71
2022/03/14 09:18:03;;;;;;;1.07;1.07;;;7.70;52.00;;;;;;5051807;28;20478;-69
2022/03/14 09:20:52;;;;;;;0.50;0.50;;;7.80;52.00;;;;;;5052622;28;20866;-70
2022/03/14 09:23:40;;;;;;;8.50;2.80;;;7.80;51.50;;;;;;5052744;28;20456;-71
2022/03/14 09:26:27;;;;;;;0.77;0.77;;;7.90;52.00;;;;;;5052544;28;20471;-70
2022/03/14 09:29:15;;;;;;;0.50;0.50;;;8.20;52.10;;;;;;5042756;28;20463;-70
2022/03/14 09:32:01;;;;;;;0.50;0.50;;;8.00;51.20;;;;;;5045442;28;20436;-72
2022/03/14 09:34:48;;;;;;;1.37;1.37;;;8.20;51.60;;;;;;5050611;28;20460;-71
2022/03/14 09:37:38;;;;;;;0.60;0.60;;;8.20;51.90;;;;;;5055795;28;20940;-71
2022/03/14 09:40:25;;;;;;;15.77;3.90;;;8.40;51.60;;;;;;5056843;28;20482;-71
2022/03/14 09:43:14;;;;;;;1.67;1.67;;;8.50;51.60;;;;;;5045494;28;20460;-70
2022/03/14 09:46:02;;;;;;;0.50;0.50;;;8.60;51.20;;;;;;5055550;28;20425;-69
2022/03/14 09:48:52;;;;;;;5.73;4.63;;;8.70;51.40;;;;;;5048109;28;20804;-71
2022/03/14 09:51:40;;;;;;;0.50;0.50;;;8.80;50.90;;;;;;5052248;28;21219;-71
2022/03/14 09:54:29;;;;;;;0.87;0.87;;;9.00;50.40;;;;;;5054782;28;21026;-72
2022/03/14 09:57:16;;;;;;;0.50;0.50;;;9.00;50.00;;;;;;5054585;28;20491;-71
2022/03/14 10:00:04;;;;;;;0.50;0.50;;;9.10;50.20;;;;;;5057024;28;20440;-70
2022/03/14 10:02:51;;;;;;;0.70;0.70;;;9.20;49.40;;;;;;5055416;28;20428;-70
2022/03/14 10:05:38;;;;;;;0.50;0.50;;;9.30;48.30;;;;;;5054104;28;20960;-70
2022/03/14 10:08:25;;;;;;;0.60;0.60;;;9.40;48.30;;;;;;5056291;28;20433;-70
2022/03/14 10:11:13;;;;;;;0.50;0.50;;;9.50;48.20;;;;;;5054581;28;20429;-72
2022/03/14 10:14:01;;;;;;;1.87;1.80;;;9.60;48.00;;;;;;5054124;28;20476;-70
2022/03/14 10:16:48;;;;;;;0.50;0.50;;;9.60;47.80;;;;;;5055256;28;20474;-69
2022/03/14 10:19:35;;;;;;;0.40;0.40;;;9.70;47.70;;;;;;5054413;28;20929;-72
2022/03/14 10:22:23;;;;;;;1.00;1.00;;;9.90;48.20;;;;;;5055497;28;20436;-71
2022/03/14 10:25:11;;;;;;;0.80;0.80;;;9.90;47.90;;;;;;5050969;28;20455;-71
2022/03/14 10:28:02;;;;;;;3.50;3.30;;;10.00;46.70;;;;;;5071658;23;20432;-65
2022/03/14 10:30:49;;;;;;;3.47;3.23;;;10.00;47.20;;;;;;5047850;28;20464;-68
2022/03/14 10:33:36;;;;;;;0.40;0.40;;;10.10;47.20;;;;;;5049006;28;21037;-66
2022/03/14 10:36:39;;;;;;;0.53;0.53;;;10.10;47.20;;;;;;5046576;28;20441;-66
2022/03/14 10:39:28;;;;;;;1.00;1.00;;;10.20;48.00;;;;;;5047920;28;20441;-66
2022/03/14 10:42:15;;;;;;;0.40;0.40;;;10.30;47.30;;;;;;5038010;28;20971;-66
2022/03/14 10:45:10;;;;;;;5.00;2.83;;;10.40;47.20;;;;;;5018940;28;20423;-66
2022/03/14 10:47:58;;;;;;;0.70;0.70;;;10.40;47.80;;;;;;5018132;28;20809;-67
2022/03/14 10:50:45;;;;;;;1.10;1.10;;;10.50;46.90;;;;;;5018699;28;20824;-67
2022/03/14 10:53:34;;;;;;;22.60;20.20;;;10.60;47.40;;;;;;5019770;28;20470;-67
2022/03/14 10:56:27;;;;;;;0.40;0.40;;;10.70;47.70;;;;;;5026527;28;20430;-67
2022/03/14 10:59:14;;;;;;;0.70;0.70;;;10.70;46.90;;;;;;5015920;28;20462;-67
2022/03/14 11:02:04;;;;;;;2.20;1.57;;;10.80;46.40;;;;;;5009083;28;20443;-68
2022/03/14 11:04:52;;;;;;;0.80;0.80;;;10.80;47.10;;;;;;5015921;28;20423;-67
2022/03/14 11:07:43;;;;;;;2.40;2.30;;;10.90;47.10;;;;;;5012753;28;20500;-66
2022/03/14 11:10:38;;;;;;;0.93;0.93;;;11.00;46.70;;;;;;5018383;28;20430;-66
2022/03/14 11:13:26;;;;;;;0.40;0.40;;;11.00;47.30;;;;;;5013562;28;20474;-66
2022/03/14 11:16:13;;;;;;;0.40;0.40;;;11.10;47.60;;;;;;5012073;28;20429;-66
2022/03/14 11:19:02;;;;;;;0.40;0.40;;;11.30;47.10;;;;;;5005698;28;20211;-66
2022/03/14 11:21:49;;;;;;;0.40;0.40;;;11.70;47.50;;;;;;5009013;28;20438;-66
2022/03/14 11:24:36;;;;;;;0.90;0.60;;;11.90;46.90;;;;;;5012576;28;20462;-66
2022/03/14 11:27:26;;;;;;;0.60;0.60;;;12.20;45.90;;;;;;5025660;28;20461;-66
2022/03/14 11:30:14;;;;;;;2.10;2.00;;;12.40;46.20;;;;;;5033927;28;20635;-66
2022/03/14 11:33:01;;;;;;;1.43;1.33;;;12.60;46.40;;;;;;5030836;28;20227;-67
2022/03/14 11:35:51;;;;;;;0.50;0.50;;;12.70;45.20;;;;;;5031474;28;20460;-67
2022/03/14 11:38:38;;;;;;;0.40;0.40;;;12.70;46.20;;;;;;5029458;28;20458;-67
2022/03/14 11:41:26;;;;;;;0.80;0.80;;;12.80;46.30;;;;;;5023200;28;20206;-67
2022/03/14 11:44:13;;;;;;;0.70;0.70;;;13.00;46.10;;;;;;5015812;28;20214;-67
2022/03/14 11:47:02;;;;;;;0.60;0.60;;;13.10;46.40;;;;;;5017017;28;20199;-66
2022/03/14 11:49:49;;;;;;;1.17;1.17;;;12.90;46.40;;;;;;5011506;28;20230;-67
2022/03/14 11:52:39;;;;;;;1.13;1.13;;;12.90;46.90;;;;;;5015442;28;20840;-66
2022/03/14 11:55:28;;;;;;;0.40;0.40;;;13.00;47.30;;;;;;5018598;28;20226;-66
2022/03/14 11:58:29;;;;;;;0.40;0.40;;;13.00;47.50;;;;;;5016730;28;20703;-67
2022/03/14 12:01:21;;;;;;;0.40;0.40;;;13.20;47.30;;;;;;5014498;28;20213;-67
2022/03/14 12:04:26;;;;;;;0.40;0.40;;;13.30;47.10;;;;;;5008591;28;20214;-67
2022/03/14 12:07:16;;;;;;;1.90;1.75;;;13.60;47.00;;;;;;5016119;28;20238;-67
2022/03/14 12:10:25;;;;;;;1.42;1.40;;;13.90;47.10;;;;;;5019768;28;20311;-67
2022/03/14 12:13:12;;;;;;;0.40;0.40;;;14.30;47.10;;;;;;5009391;28;20226;-67
2022/03/14 12:15:59;;;;;;;2.58;2.40;;;14.50;46.70;;;;;;5028379;28;20218;-66
2022/03/14 12:18:47;;;;;;;0.73;0.70;;;14.80;46.60;;;;;;5026373;28;20218;-66
2022/03/14 12:21:52;;;;;;;0.90;0.90;;;14.90;45.50;;;;;;5032187;28;20640;-67
2022/03/14 12:24:48;;;;;;;0.75;0.75;;;15.00;45.00;;;;;;5010078;28;20678;-67
2022/03/14 12:27:37;;;;;;;0.40;0.40;;;14.90;45.50;;;;;;5009674;28;20200;-67
2022/03/14 12:30:32;;;;;;;0.40;0.40;;;15.10;45.20;;;;;;5014636;28;20206;-67
2022/03/14 12:33:31;;;;;;;0.40;0.40;;;15.50;45.30;;;;;;5010707;28;20230;-67
2022/03/14 12:36:43;;;;;;;1.05;1.05;;;15.90;43.90;;;;;;5011980;28;20344;-66
2022/03/14 12:39:36;;;;;;;0.80;0.80;;;15.90;43.70;;;;;;5005086;28;20223;-67
2022/03/14 12:42:25;;;;;;;0.40;0.40;;;15.90;44.00;;;;;;5009308;28;20206;-68
2022/03/14 12:45:22;;;;;;;0.98;0.65;;;15.80;43.70;;;;;;5015308;28;20215;-67
2022/03/14 12:48:16;;;;;;;1.38;1.10;;;15.30;43.10;;;;;;5012657;28;20225;-67
2022/03/14 12:51:05;;;;;;;1.10;1.10;;;15.10;44.30;;;;;;5004912;28;20277;-66
2022/03/14 12:53:54;;;;;;;0.88;0.82;;;14.70;44.60;;;;;;5006094;28;20601;-69
2022/03/14 12:56:44;;;;;;;0.45;0.45;;;14.50;44.50;;;;;;5007069;28;20660;-67
2022/03/14 12:59:32;;;;;;;0.40;0.40;;;14.50;45.40;;;;;;5012656;28;20230;-67
2022/03/14 13:02:25;;;;;;;4.55;4.25;;;14.60;45.30;;;;;;5013389;28;20207;-66
2022/03/14 13:05:12;;;;;;;0.50;0.50;;;14.40;45.00;;;;;;5017924;28;20566;-67
2022/03/14 13:08:03;;;;;;;0.50;0.50;;;14.40;45.70;;;;;;5010397;28;20233;-67
2022/03/14 13:10:52;;;;;;;2.15;2.05;;;14.50;45.50;;;;;;5011531;28;20209;-68
2022/03/14 13:13:39;;;;;;;0.40;0.40;;;14.50;45.70;;;;;;5015682;28;20695;-68
2022/03/14 13:16:29;;;;;;;0.68;0.63;;;14.70;45.50;;;;;;5015169;28;20207;-68
2022/03/14 13:19:23;;;;;;;3.72;3.53;;;15.10;44.20;;;;;;5022791;28;20227;-67
2022/03/14 13:22:14;;;;;;;0.40;0.40;;;15.10;44.70;;;;;;5021325;28;20261;-66
2022/03/14 13:25:01;;;;;;;0.40;0.40;;;15.20;45.30;;;;;;5018137;28;20899;-67
2022/03/14 13:27:53;;;;;;;1.95;1.85;;;15.50;44.70;;;;;;5017485;28;20209;-67
2022/03/14 13:30:42;;;;;;;0.68;0.68;;;16.00;44.60;;;;;;5015376;28;20215;-67
2022/03/14 13:33:33;;;;;;;0.40;0.40;;;16.30;43.90;;;;;;5016773;28;20326;-66
2022/03/14 13:36:21;;;;;;;0.70;0.70;;;16.40;43.70;;;;;;5015937;28;20210;-66
2022/03/14 13:39:09;;;;;;;0.40;0.40;;;16.70;43.60;;;;;;5022592;28;20234;-66
2022/03/14 13:41:58;;;;;;;0.40;0.40;;;16.90;43.60;;;;;;4995393;28;20296;-66
2022/03/14 13:44:44;;;;;;;0.40;0.40;;;17.40;43.10;;;;;;5026464;28;20273;-67
2022/03/14 13:47:31;;;;;;;0.40;0.40;;;17.90;42.20;;;;;;5027278;28;20628;-67
2022/03/14 13:50:18;;;;;;;1.73;1.63;;;18.60;41.50;;;;;;5026713;28;20253;-66
2022/03/14 13:53:07;;;;;;;0.50;0.50;;;19.70;41.50;;;;;;5016518;28;20218;-68
2022/03/14 13:55:55;;;;;;;10.30;2.78;;;20.10;39.80;;;;;;5011566;28;20203;-69
2022/03/14 13:58:52;;;;;;;4.35;1.65;;;20.70;39.20;;;;;;5017707;28;20703;-68
2022/03/14 14:01:46;;;;;;;2.53;2.42;;;20.60;38.80;;;;;;5014758;28;20337;-66
2022/03/14 14:04:35;;;;;;;0.70;0.70;;;20.20;40.20;;;;;;5014534;28;20589;-67
2022/03/14 14:07:24;;;;;;;0.60;0.60;;;19.80;39.40;;;;;;5013919;28;20206;-70
2022/03/14 14:10:14;;;;;;;3.35;3.15;;;19.10;40.00;;;;;;5014951;28;20203;-67
2022/03/14 14:13:02;;;;;;;11.10;10.20;;;18.60;40.60;;;;;;5010858;28;20207;-66
2022/03/14 14:15:50;;;;;;;2.00;1.80;;;18.10;40.80;;;;;;5005076;28;20230;-67
2022/03/14 14:18:37;;;;;;;0.60;0.60;;;17.20;41.80;;;;;;5025114;28;20229;-67
2022/03/14 14:21:24;;;;;;;6.18;1.45;;;16.20;43.30;;;;;;5026877;28;20662;-67
2022/03/14 14:24:10;;;;;;;5.78;5.03;;;15.70;44.20;;;;;;5030878;28;20202;-67
2022/03/14 14:26:59;;;;;;;2.35;2.05;;;15.20;44.50;;;;;;4998792;28;20278;-67
2022/03/14 14:29:54;;;;;;;2.05;1.95;;;14.90;45.30;;;;;;4997797;28;20236;-67
2022/03/14 14:32:42;;;;;;;0.95;0.95;;;14.70;45.80;;;;;;4998796;28;20211;-66
2022/03/14 14:35:29;;;;;;;1.63;1.52;;;14.60;47.10;;;;;;4997490;28;20230;-67
2022/03/14 14:38:20;;;;;;;3.63;2.53;;;14.40;47.30;;;;;;4999480;28;20251;-67
2022/03/14 14:41:09;;;;;;;3.70;2.35;;;14.20;47.40;;;;;;4999946;28;20625;-67
2022/03/14 14:43:57;;;;;;;1.30;1.20;;;14.10;47.90;;;;;;4998370;28;20202;-66
2022/03/14 14:46:44;;;;;;;1.15;0.90;;;13.60;48.40;;;;;;4997790;28;20207;-66